sensor_id;sensor_type;location;lat;lon;timestamp;pressure;altitude;pressure_sealevel;temperature
29701;BMP280;57917;51.380;-0.176;2023-08-12T00:02:53;101271.41;;;19.24
29701;BMP280;57917;51.380;-0.176;2023-08-12T00:08:41;101249.44;;;19.22
29701;BMP280;57917;51.380;-0.176;2023-08-12T00:14:28;101245.00;;;19.26
29701;BMP280;57917;51.380;-0.176;2023-08-12T00:20:18;101248.38;;;19.15
29701;BMP280;57917;51.380;-0.176;2023-08-12T00:26:05;101240.00;;;19.16
29701;BMP280;57917;51.380;-0.176;2023-08-12T00:31:51;101224.16;;;18.86
29701;BMP280;57917;51.380;-0.176;2023-08-12T00:37:38;101237.38;;;18.91
29701;BMP280;57917;51.380;-0.176;2023-08-12T00:43:25;101239.75;;;18.92
29701;BMP280;57917;51.380;-0.176;2023-08-12T00:49:12;101236.53;;;19.07
29701;BMP280;57917;51.380;-0.176;2023-08-12T00:54:59;101227.31;;;18.88
29701;BMP280;57917;51.380;-0.176;2023-08-12T01:00:46;101223.84;;;18.87
29701;BMP280;57917;51.380;-0.176;2023-08-12T01:06:33;101229.56;;;18.68
29701;BMP280;57917;51.380;-0.176;2023-08-12T01:12:27;101224.47;;;18.67
29701;BMP280;57917;51.380;-0.176;2023-08-12T01:18:18;101227.69;;;18.60
29701;BMP280;57917;51.380;-0.176;2023-08-12T01:24:06;101230.97;;;18.49
29701;BMP280;57917;51.380;-0.176;2023-08-12T01:29:53;101234.47;;;18.49
29701;BMP280;57917;51.380;-0.176;2023-08-12T01:35:42;101216.50;;;18.33
29701;BMP280;57917;51.380;-0.176;2023-08-12T01:41:37;101217.28;;;18.33
29701;BMP280;57917;51.380;-0.176;2023-08-12T01:47:24;101211.41;;;18.40
29701;BMP280;57917;51.380;-0.176;2023-08-12T01:53:15;101220.25;;;18.32
29701;BMP280;57917;51.380;-0.176;2023-08-12T01:59:02;101226.41;;;18.07
29701;BMP280;57917;51.380;-0.176;2023-08-12T02:04:49;101236.31;;;17.98
29701;BMP280;57917;51.380;-0.176;2023-08-12T02:10:36;101239.09;;;17.76
29701;BMP280;57917;51.380;-0.176;2023-08-12T02:16:23;101233.25;;;17.65
29701;BMP280;57917;51.380;-0.176;2023-08-12T02:22:10;101228.38;;;17.67
29701;BMP280;57917;51.380;-0.176;2023-08-12T02:27:56;101231.84;;;17.68
29701;BMP280;57917;51.380;-0.176;2023-08-12T02:33:43;101221.72;;;17.48
29701;BMP280;57917;51.380;-0.176;2023-08-12T02:39:30;101210.56;;;17.54
29701;BMP280;57917;51.380;-0.176;2023-08-12T02:45:17;101210.06;;;17.44
29701;BMP280;57917;51.380;-0.176;2023-08-12T02:51:04;101228.56;;;17.32
29701;BMP280;57917;51.380;-0.176;2023-08-12T02:56:51;101242.91;;;17.05
29701;BMP280;57917;51.380;-0.176;2023-08-12T03:02:38;101238.09;;;17.16
29701;BMP280;57917;51.380;-0.176;2023-08-12T03:08:28;101253.31;;;16.85
29701;BMP280;57917;51.380;-0.176;2023-08-12T03:14:16;101238.88;;;16.86
29701;BMP280;57917;51.380;-0.176;2023-08-12T03:20:05;101229.19;;;16.98
29701;BMP280;57917;51.380;-0.176;2023-08-12T03:25:56;101255.03;;;17.03
29701;BMP280;57917;51.380;-0.176;2023-08-12T03:31:44;101237.75;;;16.87
29701;BMP280;57917;51.380;-0.176;2023-08-12T03:37:31;101235.16;;;16.95
29701;BMP280;57917;51.380;-0.176;2023-08-12T03:43:18;101231.66;;;16.86
29701;BMP280;57917;51.380;-0.176;2023-08-12T03:49:06;101228.03;;;16.91
29701;BMP280;57917;51.380;-0.176;2023-08-12T03:54:54;101219.72;;;17.23
29701;BMP280;57917;51.380;-0.176;2023-08-12T04:00:42;101217.00;;;17.14
29701;BMP280;57917;51.380;-0.176;2023-08-12T04:06:34;101209.19;;;16.96
29701;BMP280;57917;51.380;-0.176;2023-08-12T04:12:22;101219.91;;;16.96
29701;BMP280;57917;51.380;-0.176;2023-08-12T04:18:08;101200.38;;;16.95
29701;BMP280;57917;51.380;-0.176;2023-08-12T04:23:55;101206.56;;;17.04
29701;BMP280;57917;51.380;-0.176;2023-08-12T04:29:42;101202.84;;;16.92
29701;BMP280;57917;51.380;-0.176;2023-08-12T04:35:31;101202.59;;;17.02
29701;BMP280;57917;51.380;-0.176;2023-08-12T04:41:21;101181.41;;;17.14
29701;BMP280;57917;51.380;-0.176;2023-08-12T04:47:15;101176.00;;;17.36
29701;BMP280;57917;51.380;-0.176;2023-08-12T04:53:02;101174.75;;;17.33
29701;BMP280;57917;51.380;-0.176;2023-08-12T04:58:49;101161.13;;;17.13
29701;BMP280;57917;51.380;-0.176;2023-08-12T05:04:36;101152.34;;;17.21
29701;BMP280;57917;51.380;-0.176;2023-08-12T05:10:23;101155.78;;;17.13
29701;BMP280;57917;51.380;-0.176;2023-08-12T05:16:11;101157.06;;;17.24
29701;BMP280;57917;51.380;-0.176;2023-08-12T05:21:58;101152.97;;;17.26
29701;BMP280;57917;51.380;-0.176;2023-08-12T05:27:46;101151.50;;;17.59
29701;BMP280;57917;51.380;-0.176;2023-08-12T05:33:32;101146.75;;;18.58
29701;BMP280;57917;51.380;-0.176;2023-08-12T05:39:19;101137.94;;;19.33
29701;BMP280;57917;51.380;-0.176;2023-08-12T05:45:06;101137.63;;;20.08
29701;BMP280;57917;51.380;-0.176;2023-08-12T05:50:54;101127.34;;;19.90
29701;BMP280;57917;51.380;-0.176;2023-08-12T05:56:41;101150.72;;;19.28
29701;BMP280;57917;51.380;-0.176;2023-08-12T06:02:27;101144.75;;;19.22
29701;BMP280;57917;51.380;-0.176;2023-08-12T06:08:14;101148.88;;;18.82
29701;BMP280;57917;51.380;-0.176;2023-08-12T06:14:01;101147.47;;;19.14
29701;BMP280;57917;51.380;-0.176;2023-08-12T06:19:48;101145.59;;;20.49
29701;BMP280;57917;51.380;-0.176;2023-08-12T06:25:38;101135.91;;;21.44
29701;BMP280;57917;51.380;-0.176;2023-08-12T06:31:27;101133.94;;;21.17
29701;BMP280;57917;51.380;-0.176;2023-08-12T06:37:14;101138.69;;;20.96
29701;BMP280;57917;51.380;-0.176;2023-08-12T06:43:01;101146.28;;;21.06
29701;BMP280;57917;51.380;-0.176;2023-08-12T06:48:48;101136.19;;;20.55
29701;BMP280;57917;51.380;-0.176;2023-08-12T06:54:34;101142.03;;;20.69
29701;BMP280;57917;51.380;-0.176;2023-08-12T07:00:21;101136.84;;;20.52
29701;BMP280;57917;51.380;-0.176;2023-08-12T07:06:10;101131.44;;;20.40
29701;BMP280;57917;51.380;-0.176;2023-08-12T07:11:58;101138.88;;;20.23
29701;BMP280;57917;51.380;-0.176;2023-08-12T07:17:45;101144.47;;;20.50
29701;BMP280;57917;51.380;-0.176;2023-08-12T07:23:32;101141.56;;;21.27
29701;BMP280;57917;51.380;-0.176;2023-08-12T07:29:19;101148.34;;;21.88
29701;BMP280;57917;51.380;-0.176;2023-08-12T07:35:05;101143.19;;;21.56
29701;BMP280;57917;51.380;-0.176;2023-08-12T07:40:53;101139.13;;;20.98
29701;BMP280;57917;51.380;-0.176;2023-08-12T07:46:39;101147.00;;;21.03
29701;BMP280;57917;51.380;-0.176;2023-08-12T07:52:28;101125.53;;;21.58
29701;BMP280;57917;51.380;-0.176;2023-08-12T07:58:16;101126.06;;;22.50
29701;BMP280;57917;51.380;-0.176;2023-08-12T08:04:04;101126.31;;;23.11
29701;BMP280;57917;51.380;-0.176;2023-08-12T08:09:51;101111.53;;;22.89
29701;BMP280;57917;51.380;-0.176;2023-08-12T08:15:40;101128.13;;;22.88
29701;BMP280;57917;51.380;-0.176;2023-08-12T08:21:27;101121.31;;;22.78
29701;BMP280;57917;51.380;-0.176;2023-08-12T08:27:14;101113.25;;;22.47
29701;BMP280;57917;51.380;-0.176;2023-08-12T08:33:01;101114.78;;;22.64
29701;BMP280;57917;51.380;-0.176;2023-08-12T08:38:47;101120.47;;;23.09
29701;BMP280;57917;51.380;-0.176;2023-08-12T08:44:35;101120.22;;;22.48
29701;BMP280;57917;51.380;-0.176;2023-08-12T08:50:24;101111.28;;;22.44
29701;BMP280;57917;51.380;-0.176;2023-08-12T08:56:12;101104.31;;;22.59
29701;BMP280;57917;51.380;-0.176;2023-08-12T09:02:13;101096.53;;;22.73
29701;BMP280;57917;51.380;-0.176;2023-08-12T09:08:07;101091.84;;;22.23
29701;BMP280;57917;51.380;-0.176;2023-08-12T09:13:57;101087.97;;;22.86
29701;BMP280;57917;51.380;-0.176;2023-08-12T09:19:44;101089.41;;;23.18
29701;BMP280;57917;51.380;-0.176;2023-08-12T09:25:34;101083.75;;;23.84
29701;BMP280;57917;51.380;-0.176;2023-08-12T09:31:25;101079.75;;;23.78
29701;BMP280;57917;51.380;-0.176;2023-08-12T09:37:15;101082.44;;;24.71
29701;BMP280;57917;51.380;-0.176;2023-08-12T09:43:03;101083.06;;;25.20
29701;BMP280;57917;51.380;-0.176;2023-08-12T09:48:51;101085.41;;;25.98
29701;BMP280;57917;51.380;-0.176;2023-08-12T09:54:39;101091.75;;;25.73
29701;BMP280;57917;51.380;-0.176;2023-08-12T10:00:26;101071.66;;;25.41
29701;BMP280;57917;51.380;-0.176;2023-08-12T10:06:12;101068.09;;;25.33
29701;BMP280;57917;51.380;-0.176;2023-08-12T10:12:02;101079.16;;;25.54
29701;BMP280;57917;51.380;-0.176;2023-08-12T10:17:51;101077.72;;;24.42
29701;BMP280;57917;51.380;-0.176;2023-08-12T10:23:40;101084.72;;;23.95
29701;BMP280;57917;51.380;-0.176;2023-08-12T10:29:31;101077.22;;;23.66
29701;BMP280;57917;51.380;-0.176;2023-08-12T10:35:18;101075.31;;;23.47
29701;BMP280;57917;51.380;-0.176;2023-08-12T10:41:23;101074.28;;;23.14
29701;BMP280;57917;51.380;-0.176;2023-08-12T10:47:10;101085.69;;;23.07
29701;BMP280;57917;51.380;-0.176;2023-08-12T10:52:59;101084.69;;;23.72
29701;BMP280;57917;51.380;-0.176;2023-08-12T10:59:06;101066.75;;;24.06
29701;BMP280;57917;51.380;-0.176;2023-08-12T11:04:54;101074.78;;;24.51
29701;BMP280;57917;51.380;-0.176;2023-08-12T11:10:44;101057.91;;;24.61
29701;BMP280;57917;51.380;-0.176;2023-08-12T11:16:36;101062.84;;;24.52
29701;BMP280;57917;51.380;-0.176;2023-08-12T11:22:24;101062.00;;;23.99
29701;BMP280;57917;51.380;-0.176;2023-08-12T11:28:13;101095.06;;;23.29
29701;BMP280;57917;51.380;-0.176;2023-08-12T11:34:10;101109.78;;;22.62
29701;BMP280;57917;51.380;-0.176;2023-08-12T11:39:57;101102.31;;;22.90
29701;BMP280;57917;51.380;-0.176;2023-08-12T11:45:44;101076.41;;;24.07
29701;BMP280;57917;51.380;-0.176;2023-08-12T11:51:34;101061.97;;;24.22
29701;BMP280;57917;51.380;-0.176;2023-08-12T11:57:22;101065.91;;;24.24
29701;BMP280;57917;51.380;-0.176;2023-08-12T12:03:09;101072.31;;;24.42
29701;BMP280;57917;51.380;-0.176;2023-08-12T12:09:00;101055.06;;;24.80
29701;BMP280;57917;51.380;-0.176;2023-08-12T12:14:51;101058.88;;;24.75
29701;BMP280;57917;51.380;-0.176;2023-08-12T12:21:02;101059.44;;;24.58
29701;BMP280;57917;51.380;-0.176;2023-08-12T12:26:49;101046.72;;;24.92
29701;BMP280;57917;51.380;-0.176;2023-08-12T12:32:36;101034.03;;;24.70
29701;BMP280;57917;51.380;-0.176;2023-08-12T12:38:23;101048.13;;;24.53
29701;BMP280;57917;51.380;-0.176;2023-08-12T12:44:10;101049.59;;;24.76
29701;BMP280;57917;51.380;-0.176;2023-08-12T12:49:57;101036.84;;;24.47
29701;BMP280;57917;51.380;-0.176;2023-08-12T12:55:44;101045.88;;;23.61
29701;BMP280;57917;51.380;-0.176;2023-08-12T13:01:31;101047.84;;;24.58
29701;BMP280;57917;51.380;-0.176;2023-08-12T13:07:21;101038.78;;;24.76
29701;BMP280;57917;51.380;-0.176;2023-08-12T13:13:14;101054.91;;;24.66
29701;BMP280;57917;51.380;-0.176;2023-08-12T13:19:05;101047.97;;;24.16
29701;BMP280;57917;51.380;-0.176;2023-08-12T13:24:51;101044.09;;;23.91
29701;BMP280;57917;51.380;-0.176;2023-08-12T13:30:39;101058.94;;;23.78
29701;BMP280;57917;51.380;-0.176;2023-08-12T13:36:26;101069.78;;;23.40
29701;BMP280;57917;51.380;-0.176;2023-08-12T13:42:13;101065.34;;;22.75
29701;BMP280;57917;51.380;-0.176;2023-08-12T13:48:00;101075.38;;;22.59
29701;BMP280;57917;51.380;-0.176;2023-08-12T13:53:49;101075.84;;;22.96
29701;BMP280;57917;51.380;-0.176;2023-08-12T13:59:37;101074.19;;;22.91
29701;BMP280;57917;51.380;-0.176;2023-08-12T14:05:26;101098.53;;;22.76
29701;BMP280;57917;51.380;-0.176;2023-08-12T14:11:13;101088.72;;;22.87
29701;BMP280;57917;51.380;-0.176;2023-08-12T14:17:02;101071.53;;;22.76
29701;BMP280;57917;51.380;-0.176;2023-08-12T14:22:49;101068.66;;;23.22
29701;BMP280;57917;51.380;-0.176;2023-08-12T14:28:36;101076.56;;;23.50
29701;BMP280;57917;51.380;-0.176;2023-08-12T14:34:23;101069.09;;;23.24
29701;BMP280;57917;51.380;-0.176;2023-08-12T14:40:13;101066.06;;;23.07
29701;BMP280;57917;51.380;-0.176;2023-08-12T14:46:02;101064.88;;;23.08
29701;BMP280;57917;51.380;-0.176;2023-08-12T14:51:56;101074.47;;;22.71
29701;BMP280;57917;51.380;-0.176;2023-08-12T14:57:44;101071.72;;;22.67
29701;BMP280;57917;51.380;-0.176;2023-08-12T15:03:33;101072.31;;;22.76
29701;BMP280;57917;51.380;-0.176;2023-08-12T15:09:20;101048.50;;;22.82
29701;BMP280;57917;51.380;-0.176;2023-08-12T15:15:09;101071.13;;;23.12
29701;BMP280;57917;51.380;-0.176;2023-08-12T15:21:02;101062.00;;;23.35
29701;BMP280;57917;51.380;-0.176;2023-08-12T15:26:57;101060.06;;;22.98
29701;BMP280;57917;51.380;-0.176;2023-08-12T15:32:51;101069.75;;;22.99
29701;BMP280;57917;51.380;-0.176;2023-08-12T15:38:39;101081.66;;;22.82
29701;BMP280;57917;51.380;-0.176;2023-08-12T15:44:28;101075.47;;;22.63
29701;BMP280;57917;51.380;-0.176;2023-08-12T15:50:17;101074.88;;;22.54
29701;BMP280;57917;51.380;-0.176;2023-08-12T15:56:04;101071.47;;;22.41
29701;BMP280;57917;51.380;-0.176;2023-08-12T16:01:51;101060.25;;;22.39
29701;BMP280;57917;51.380;-0.176;2023-08-12T16:07:38;101055.47;;;22.48
29701;BMP280;57917;51.380;-0.176;2023-08-12T16:13:25;101060.97;;;22.52
29701;BMP280;57917;51.380;-0.176;2023-08-12T16:19:12;101059.88;;;22.72
29701;BMP280;57917;51.380;-0.176;2023-08-12T16:25:02;101052.78;;;22.83
29701;BMP280;57917;51.380;-0.176;2023-08-12T16:30:49;101049.38;;;22.51
29701;BMP280;57917;51.380;-0.176;2023-08-12T16:36:36;101043.00;;;22.59
29701;BMP280;57917;51.380;-0.176;2023-08-12T16:42:23;101053.09;;;22.62
29701;BMP280;57917;51.380;-0.176;2023-08-12T16:48:10;101039.72;;;22.50
29701;BMP280;57917;51.380;-0.176;2023-08-12T16:54:02;101031.47;;;22.28
29701;BMP280;57917;51.380;-0.176;2023-08-12T16:59:51;101026.97;;;22.00
29701;BMP280;57917;51.380;-0.176;2023-08-12T17:05:37;101048.75;;;21.95
29701;BMP280;57917;51.380;-0.176;2023-08-12T17:11:24;101045.38;;;21.83
29701;BMP280;57917;51.380;-0.176;2023-08-12T17:17:11;101039.72;;;21.88
29701;BMP280;57917;51.380;-0.176;2023-08-12T17:22:58;101039.47;;;21.93
29701;BMP280;57917;51.380;-0.176;2023-08-12T17:28:53;101026.53;;;21.98
29701;BMP280;57917;51.380;-0.176;2023-08-12T17:34:39;101026.06;;;21.81
29701;BMP280;57917;51.380;-0.176;2023-08-12T17:40:26;101038.81;;;21.68
29701;BMP280;57917;51.380;-0.176;2023-08-12T17:46:14;101044.44;;;21.48
29701;BMP280;57917;51.380;-0.176;2023-08-12T17:52:01;101041.69;;;21.32
29701;BMP280;57917;51.380;-0.176;2023-08-12T17:57:48;101043.81;;;21.27
29701;BMP280;57917;51.380;-0.176;2023-08-12T18:03:35;101038.78;;;21.25
29701;BMP280;57917;51.380;-0.176;2023-08-12T18:09:23;101037.03;;;21.05
29701;BMP280;57917;51.380;-0.176;2023-08-12T18:15:10;101037.28;;;21.00
29701;BMP280;57917;51.380;-0.176;2023-08-12T18:20:57;101063.34;;;20.84
29701;BMP280;57917;51.380;-0.176;2023-08-12T18:26:44;101057.69;;;21.01
29701;BMP280;57917;51.380;-0.176;2023-08-12T18:32:32;101082.50;;;20.95
29701;BMP280;57917;51.380;-0.176;2023-08-12T18:38:24;101078.81;;;20.75
29701;BMP280;57917;51.380;-0.176;2023-08-12T18:44:12;101086.28;;;20.94
29701;BMP280;57917;51.380;-0.176;2023-08-12T18:50:01;101096.72;;;20.95
29701;BMP280;57917;51.380;-0.176;2023-08-12T18:55:50;101090.56;;;20.47
29701;BMP280;57917;51.380;-0.176;2023-08-12T19:01:39;101101.41;;;20.26
29701;BMP280;57917;51.380;-0.176;2023-08-12T19:07:27;101101.59;;;20.09
29701;BMP280;57917;51.380;-0.176;2023-08-12T19:13:14;101104.97;;;20.18
29701;BMP280;57917;51.380;-0.176;2023-08-12T19:19:04;101109.63;;;19.97
29701;BMP280;57917;51.380;-0.176;2023-08-12T19:24:54;101106.75;;;19.94
29701;BMP280;57917;51.380;-0.176;2023-08-12T19:30:47;101100.09;;;19.79
29701;BMP280;57917;51.380;-0.176;2023-08-12T19:36:36;101120.28;;;19.65
29701;BMP280;57917;51.380;-0.176;2023-08-12T19:42:22;101124.16;;;19.55
29701;BMP280;57917;51.380;-0.176;2023-08-12T19:48:12;101131.38;;;19.63
29701;BMP280;57917;51.380;-0.176;2023-08-12T19:54:07;101131.25;;;19.60
29701;BMP280;57917;51.380;-0.176;2023-08-12T19:59:59;101137.94;;;19.74
29701;BMP280;57917;51.380;-0.176;2023-08-12T20:06:00;101136.09;;;19.66
29701;BMP280;57917;51.380;-0.176;2023-08-12T20:11:47;101144.88;;;19.55
29701;BMP280;57917;51.380;-0.176;2023-08-12T20:17:39;101146.66;;;19.42
29701;BMP280;57917;51.380;-0.176;2023-08-12T20:23:26;101151.59;;;19.40
29701;BMP280;57917;51.380;-0.176;2023-08-12T20:29:15;101142.16;;;19.05
29701;BMP280;57917;51.380;-0.176;2023-08-12T20:35:05;101146.56;;;19.10
29701;BMP280;57917;51.380;-0.176;2023-08-12T20:40:53;101126.91;;;18.97
29701;BMP280;57917;51.380;-0.176;2023-08-12T20:46:40;101150.63;;;18.78
29701;BMP280;57917;51.380;-0.176;2023-08-12T20:52:30;101157.91;;;18.69
29701;BMP280;57917;51.380;-0.176;2023-08-12T20:58:17;101162.03;;;18.58
29701;BMP280;57917;51.380;-0.176;2023-08-12T21:04:05;101158.94;;;18.39
29701;BMP280;57917;51.380;-0.176;2023-08-12T21:09:52;101159.41;;;18.41
29701;BMP280;57917;51.380;-0.176;2023-08-12T21:15:39;101172.00;;;18.49
29701;BMP280;57917;51.380;-0.176;2023-08-12T21:21:28;101171.84;;;18.45
29701;BMP280;57917;51.380;-0.176;2023-08-12T21:27:17;101173.41;;;18.46
29701;BMP280;57917;51.380;-0.176;2023-08-12T21:33:03;101178.47;;;18.39
29701;BMP280;57917;51.380;-0.176;2023-08-12T21:38:51;101173.28;;;18.26
29701;BMP280;57917;51.380;-0.176;2023-08-12T21:44:38;101176.31;;;18.24
29701;BMP280;57917;51.380;-0.176;2023-08-12T21:50:25;101188.13;;;18.15
29701;BMP280;57917;51.380;-0.176;2023-08-12T21:56:13;101191.09;;;18.13
29701;BMP280;57917;51.380;-0.176;2023-08-12T22:02:01;101198.84;;;18.15
29701;BMP280;57917;51.380;-0.176;2023-08-12T22:07:50;101200.25;;;17.95
29701;BMP280;57917;51.380;-0.176;2023-08-12T22:13:37;101204.66;;;17.91
29701;BMP280;57917;51.380;-0.176;2023-08-12T22:19:27;101197.69;;;17.82
29701;BMP280;57917;51.380;-0.176;2023-08-12T22:25:14;101186.22;;;17.90
29701;BMP280;57917;51.380;-0.176;2023-08-12T22:31:01;101184.31;;;17.99
29701;BMP280;57917;51.380;-0.176;2023-08-12T22:36:48;101182.91;;;18.01
29701;BMP280;57917;51.380;-0.176;2023-08-12T22:42:34;101177.72;;;17.88
29701;BMP280;57917;51.380;-0.176;2023-08-12T22:48:23;101192.53;;;17.94
29701;BMP280;57917;51.380;-0.176;2023-08-12T22:54:10;101182.41;;;17.82
29701;BMP280;57917;51.380;-0.176;2023-08-12T22:59:57;101175.16;;;17.74
29701;BMP280;57917;51.380;-0.176;2023-08-12T23:05:43;101173.25;;;17.75
29701;BMP280;57917;51.380;-0.176;2023-08-12T23:11:32;101176.88;;;17.70
29701;BMP280;57917;51.380;-0.176;2023-08-12T23:17:22;101176.44;;;17.77
29701;BMP280;57917;51.380;-0.176;2023-08-12T23:23:13;101172.00;;;17.72
29701;BMP280;57917;51.380;-0.176;2023-08-12T23:29:03;101184.06;;;17.53
29701;BMP280;57917;51.380;-0.176;2023-08-12T23:34:50;101169.00;;;17.57
29701;BMP280;57917;51.380;-0.176;2023-08-12T23:40:36;101179.56;;;17.70
29701;BMP280;57917;51.380;-0.176;2023-08-12T23:46:23;101173.25;;;17.75
29701;BMP280;57917;51.380;-0.176;2023-08-12T23:52:10;101160.22;;;17.73
29701;BMP280;57917;51.380;-0.176;2023-08-12T23:57:58;101163.16;;;17.63
